BIEH weather

Einholtsmelar Airport
Einholtsmelar, Southern Region, Iceland

Public forecast

Using degrees Celsius for public forecast. Weather courtesy of forecast.io.

METAR (pilot weather report)

Closest report is Reykjavik Airport, 43.5 nm (80.5 km) W. Retrieved 2019/04/19 23:00 UTC (51 minutes ago):

BIRK 192300Z 17018KT 9999 -SHRA FEW023CB SCT028 BKN058 07/02 Q1001

TAF (pilot weather forecast)

Closest forecast is Reykjavik Airport, 43.5 nm (80.5 km) W. Retrieved 2019/04/19 21:43 UTC (2 hours ago):

TAF BIRK 191935Z 1921/2021 18018KT 9999 -SHRA BKN025 TX08/2015Z TN05/2006Z TEMPO 1921/2016 19020G30KT 4000 SHRA BKN014 OVC025 BECMG 2015/2017 25015KT